sensor_id;sensor_type;location;lat;lon;timestamp;P1;durP1;ratioP1;P2;durP2;ratioP2
4744;SDS011;2386;42.138;24.746;2023-07-09T00:00:47;18.10;;;5.73;;
4744;SDS011;2386;42.138;24.746;2023-07-09T00:03:14;16.60;;;5.93;;
4744;SDS011;2386;42.138;24.746;2023-07-09T00:05:39;9.90;;;5.30;;
4744;SDS011;2386;42.138;24.746;2023-07-09T00:08:05;14.20;;;5.70;;
4744;SDS011;2386;42.138;24.746;2023-07-09T00:10:30;17.33;;;5.70;;
4744;SDS011;2386;42.138;24.746;2023-07-09T00:12:56;12.03;;;5.43;;
4744;SDS011;2386;42.138;24.746;2023-07-09T00:15:21;14.30;;;5.73;;
4744;SDS011;2386;42.138;24.746;2023-07-09T00:17:47;19.80;;;6.70;;
4744;SDS011;2386;42.138;24.746;2023-07-09T00:20:13;11.07;;;5.30;;
4744;SDS011;2386;42.138;24.746;2023-07-09T00:22:41;14.70;;;6.37;;
4744;SDS011;2386;42.138;24.746;2023-07-09T00:25:10;18.03;;;6.30;;
4744;SDS011;2386;42.138;24.746;2023-07-09T00:27:41;18.27;;;6.10;;
4744;SDS011;2386;42.138;24.746;2023-07-09T00:30:30;13.83;;;4.97;;
4744;SDS011;2386;42.138;24.746;2023-07-09T00:32:55;18.23;;;7.30;;
4744;SDS011;2386;42.138;24.746;2023-07-09T00:35:20;13.80;;;6.80;;
4744;SDS011;2386;42.138;24.746;2023-07-09T00:37:48;35.83;;;6.27;;
4744;SDS011;2386;42.138;24.746;2023-07-09T00:40:14;25.27;;;22.37;;
4744;SDS011;2386;42.138;24.746;2023-07-09T00:42:44;20.00;;;18.30;;
4744;SDS011;2386;42.138;24.746;2023-07-09T00:46:15;35.63;;;32.63;;
4744;SDS011;2386;42.138;24.746;2023-07-09T00:48:09;16.27;;;7.30;;
4744;SDS011;2386;42.138;24.746;2023-07-09T00:50:42;6.67;;;4.80;;
4744;SDS011;2386;42.138;24.746;2023-07-09T00:55:52;14.13;;;5.53;;
4744;SDS011;2386;42.138;24.746;2023-07-09T00:58:31;12.57;;;5.37;;
4744;SDS011;2386;42.138;24.746;2023-07-09T01:01:02;19.97;;;14.00;;
4744;SDS011;2386;42.138;24.746;2023-07-09T01:03:34;344.33;;;314.40;;
4744;SDS011;2386;42.138;24.746;2023-07-09T01:06:02;11.83;;;5.30;;
4744;SDS011;2386;42.138;24.746;2023-07-09T01:08:30;11.77;;;6.30;;
4744;SDS011;2386;42.138;24.746;2023-07-09T01:10:57;103.03;;;93.37;;
4744;SDS011;2386;42.138;24.746;2023-07-09T01:13:27;17.13;;;7.03;;
4744;SDS011;2386;42.138;24.746;2023-07-09T01:15:53;13.00;;;5.30;;
4744;SDS011;2386;42.138;24.746;2023-07-09T01:18:20;21.30;;;6.60;;
4744;SDS011;2386;42.138;24.746;2023-07-09T01:20:46;25.20;;;6.53;;
4744;SDS011;2386;42.138;24.746;2023-07-09T01:23:11;379.47;;;338.63;;
4744;SDS011;2386;42.138;24.746;2023-07-09T01:25:38;17.57;;;6.57;;
4744;SDS011;2386;42.138;24.746;2023-07-09T01:28:08;12.67;;;5.33;;
4744;SDS011;2386;42.138;24.746;2023-07-09T01:30:38;386.60;;;345.67;;
4744;SDS011;2386;42.138;24.746;2023-07-09T01:33:06;56.27;;;51.67;;
4744;SDS011;2386;42.138;24.746;2023-07-09T01:35:34;7.00;;;4.70;;
4744;SDS011;2386;42.138;24.746;2023-07-09T01:38:01;359.40;;;323.77;;
4744;SDS011;2386;42.138;24.746;2023-07-09T01:40:28;16.87;;;12.20;;
4744;SDS011;2386;42.138;24.746;2023-07-09T01:42:54;8.37;;;4.30;;
4744;SDS011;2386;42.138;24.746;2023-07-09T01:45:23;8.60;;;4.20;;
4744;SDS011;2386;42.138;24.746;2023-07-09T01:47:48;17.07;;;5.53;;
4744;SDS011;2386;42.138;24.746;2023-07-09T01:50:14;15.07;;;5.87;;
4744;SDS011;2386;42.138;24.746;2023-07-09T01:52:42;12.30;;;8.17;;
4744;SDS011;2386;42.138;24.746;2023-07-09T01:55:13;14.47;;;10.07;;
4744;SDS011;2386;42.138;24.746;2023-07-09T01:57:42;14.13;;;8.97;;
4744;SDS011;2386;42.138;24.746;2023-07-09T02:00:09;360.00;;;323.20;;
4744;SDS011;2386;42.138;24.746;2023-07-09T02:02:36;46.57;;;42.73;;
4744;SDS011;2386;42.138;24.746;2023-07-09T02:05:04;184.10;;;167.60;;
4744;SDS011;2386;42.138;24.746;2023-07-09T02:07:31;145.13;;;133.80;;
4744;SDS011;2386;42.138;24.746;2023-07-09T02:09:56;249.67;;;227.67;;
4744;SDS011;2386;42.138;24.746;2023-07-09T02:12:23;244.47;;;224.67;;
4744;SDS011;2386;42.138;24.746;2023-07-09T02:14:49;270.83;;;247.50;;
4744;SDS011;2386;42.138;24.746;2023-07-09T02:17:15;292.03;;;267.73;;
4744;SDS011;2386;42.138;24.746;2023-07-09T02:19:41;309.67;;;282.97;;
4744;SDS011;2386;42.138;24.746;2023-07-09T02:22:07;256.50;;;235.03;;
4744;SDS011;2386;42.138;24.746;2023-07-09T02:24:33;107.10;;;98.97;;
4744;SDS011;2386;42.138;24.746;2023-07-09T02:27:00;268.47;;;244.63;;
4744;SDS011;2386;42.138;24.746;2023-07-09T02:29:28;321.20;;;293.07;;
4744;SDS011;2386;42.138;24.746;2023-07-09T02:31:55;124.97;;;115.97;;
4744;SDS011;2386;42.138;24.746;2023-07-09T02:34:22;296.80;;;269.67;;
4744;SDS011;2386;42.138;24.746;2023-07-09T02:36:51;350.67;;;318.73;;
4744;SDS011;2386;42.138;24.746;2023-07-09T02:39:17;279.67;;;256.73;;
4744;SDS011;2386;42.138;24.746;2023-07-09T02:41:43;336.77;;;304.83;;
4744;SDS011;2386;42.138;24.746;2023-07-09T02:44:08;375.53;;;337.23;;
4744;SDS011;2386;42.138;24.746;2023-07-09T02:46:34;17.67;;;13.47;;
4744;SDS011;2386;42.138;24.746;2023-07-09T02:49:00;25.57;;;7.03;;
4744;SDS011;2386;42.138;24.746;2023-07-09T02:51:28;17.27;;;5.43;;
4744;SDS011;2386;42.138;24.746;2023-07-09T02:53:54;21.53;;;5.77;;
4744;SDS011;2386;42.138;24.746;2023-07-09T02:56:21;16.17;;;5.40;;
4744;SDS011;2386;42.138;24.746;2023-07-09T02:58:46;13.03;;;4.50;;
4744;SDS011;2386;42.138;24.746;2023-07-09T03:01:12;17.23;;;6.30;;
4744;SDS011;2386;42.138;24.746;2023-07-09T03:03:37;13.43;;;5.90;;
4744;SDS011;2386;42.138;24.746;2023-07-09T03:06:03;13.17;;;5.20;;
4744;SDS011;2386;42.138;24.746;2023-07-09T03:08:29;17.37;;;5.70;;
4744;SDS011;2386;42.138;24.746;2023-07-09T03:10:54;10.63;;;5.43;;
4744;SDS011;2386;42.138;24.746;2023-07-09T03:13:19;16.60;;;5.60;;
4744;SDS011;2386;42.138;24.746;2023-07-09T03:15:53;13.63;;;5.60;;
4744;SDS011;2386;42.138;24.746;2023-07-09T03:18:20;25.13;;;7.00;;
4744;SDS011;2386;42.138;24.746;2023-07-09T03:20:46;15.43;;;6.27;;
4744;SDS011;2386;42.138;24.746;2023-07-09T03:23:11;12.07;;;4.80;;
4744;SDS011;2386;42.138;24.746;2023-07-09T03:25:40;11.50;;;5.30;;
4744;SDS011;2386;42.138;24.746;2023-07-09T03:28:06;11.50;;;4.80;;
4744;SDS011;2386;42.138;24.746;2023-07-09T03:30:31;12.10;;;4.97;;
4744;SDS011;2386;42.138;24.746;2023-07-09T03:32:57;11.73;;;5.43;;
4744;SDS011;2386;42.138;24.746;2023-07-09T03:35:22;28.33;;;25.47;;
4744;SDS011;2386;42.138;24.746;2023-07-09T03:37:48;16.67;;;14.93;;
4744;SDS011;2386;42.138;24.746;2023-07-09T03:40:19;15.90;;;6.53;;
4744;SDS011;2386;42.138;24.746;2023-07-09T03:42:48;12.57;;;5.47;;
4744;SDS011;2386;42.138;24.746;2023-07-09T03:45:14;17.03;;;12.47;;
4744;SDS011;2386;42.138;24.746;2023-07-09T03:47:40;18.80;;;7.17;;
4744;SDS011;2386;42.138;24.746;2023-07-09T03:50:07;357.97;;;318.40;;
4744;SDS011;2386;42.138;24.746;2023-07-09T03:52:34;12.87;;;5.13;;
4744;SDS011;2386;42.138;24.746;2023-07-09T03:54:59;12.00;;;4.43;;
4744;SDS011;2386;42.138;24.746;2023-07-09T03:57:26;16.57;;;12.10;;
4744;SDS011;2386;42.138;24.746;2023-07-09T03:59:52;33.93;;;31.20;;
4744;SDS011;2386;42.138;24.746;2023-07-09T04:02:18;477.00;;;357.80;;
4744;SDS011;2386;42.138;24.746;2023-07-09T04:04:43;11.13;;;4.80;;
4744;SDS011;2386;42.138;24.746;2023-07-09T04:07:09;14.17;;;5.00;;
4744;SDS011;2386;42.138;24.746;2023-07-09T04:09:34;11.67;;;5.30;;
4744;SDS011;2386;42.138;24.746;2023-07-09T04:12:00;12.27;;;4.60;;
4744;SDS011;2386;42.138;24.746;2023-07-09T04:14:28;369.87;;;292.07;;
4744;SDS011;2386;42.138;24.746;2023-07-09T04:20:16;9.33;;;4.97;;
4744;SDS011;2386;42.138;24.746;2023-07-09T04:22:41;12.37;;;6.77;;
4744;SDS011;2386;42.138;24.746;2023-07-09T04:25:07;21.57;;;8.03;;
4744;SDS011;2386;42.138;24.746;2023-07-09T04:30:56;568.20;;;367.53;;
4744;SDS011;2386;42.138;24.746;2023-07-09T04:33:21;11.73;;;5.30;;
4744;SDS011;2386;42.138;24.746;2023-07-09T04:35:47;17.40;;;5.60;;
4744;SDS011;2386;42.138;24.746;2023-07-09T04:38:14;473.67;;;361.57;;
4744;SDS011;2386;42.138;24.746;2023-07-09T04:40:40;26.93;;;16.90;;
4744;SDS011;2386;42.138;24.746;2023-07-09T04:43:05;23.23;;;21.10;;
4744;SDS011;2386;42.138;24.746;2023-07-09T04:45:31;115.83;;;105.50;;
4744;SDS011;2386;42.138;24.746;2023-07-09T04:47:56;19.70;;;6.00;;
4744;SDS011;2386;42.138;24.746;2023-07-09T04:50:21;11.53;;;7.43;;
4744;SDS011;2386;42.138;24.746;2023-07-09T04:52:47;20.03;;;16.23;;
4744;SDS011;2386;42.138;24.746;2023-07-09T04:55:12;10.63;;;9.57;;
4744;SDS011;2386;42.138;24.746;2023-07-09T04:57:38;13.23;;;5.33;;
4744;SDS011;2386;42.138;24.746;2023-07-09T05:00:05;12.70;;;5.43;;
4744;SDS011;2386;42.138;24.746;2023-07-09T05:02:31;11.60;;;5.40;;
4744;SDS011;2386;42.138;24.746;2023-07-09T05:04:57;23.70;;;6.90;;
4744;SDS011;2386;42.138;24.746;2023-07-09T05:07:22;17.67;;;7.20;;
4744;SDS011;2386;42.138;24.746;2023-07-09T05:09:48;561.23;;;362.77;;
4744;SDS011;2386;42.138;24.746;2023-07-09T05:12:13;11.00;;;4.87;;
4744;SDS011;2386;42.138;24.746;2023-07-09T05:14:39;36.93;;;34.30;;
4744;SDS011;2386;42.138;24.746;2023-07-09T05:20:13;16.83;;;9.43;;
4744;SDS011;2386;42.138;24.746;2023-07-09T05:22:39;11.80;;;5.00;;
4744;SDS011;2386;42.138;24.746;2023-07-09T05:25:05;19.83;;;17.87;;
4744;SDS011;2386;42.138;24.746;2023-07-09T05:27:31;11.67;;;10.70;;
4744;SDS011;2386;42.138;24.746;2023-07-09T05:29:56;19.87;;;6.83;;
4744;SDS011;2386;42.138;24.746;2023-07-09T05:32:38;10.50;;;6.80;;
4744;SDS011;2386;42.138;24.746;2023-07-09T05:35:03;17.57;;;6.50;;
4744;SDS011;2386;42.138;24.746;2023-07-09T05:37:29;10.77;;;5.23;;
4744;SDS011;2386;42.138;24.746;2023-07-09T05:39:54;18.87;;;5.67;;
4744;SDS011;2386;42.138;24.746;2023-07-09T05:42:20;168.63;;;127.23;;
4744;SDS011;2386;42.138;24.746;2023-07-09T05:44:46;377.27;;;305.87;;
4744;SDS011;2386;42.138;24.746;2023-07-09T05:47:11;590.93;;;373.70;;
4744;SDS011;2386;42.138;24.746;2023-07-09T05:49:38;392.37;;;354.23;;
4744;SDS011;2386;42.138;24.746;2023-07-09T05:52:04;11.67;;;5.00;;
4744;SDS011;2386;42.138;24.746;2023-07-09T05:54:30;9.83;;;4.40;;
4744;SDS011;2386;42.138;24.746;2023-07-09T05:56:56;12.20;;;4.70;;
4744;SDS011;2386;42.138;24.746;2023-07-09T05:59:21;7.57;;;4.07;;
4744;SDS011;2386;42.138;24.746;2023-07-09T06:01:46;4.20;;;3.80;;
4744;SDS011;2386;42.138;24.746;2023-07-09T06:04:12;8.40;;;3.63;;
4744;SDS011;2386;42.138;24.746;2023-07-09T06:06:39;6.90;;;4.10;;
4744;SDS011;2386;42.138;24.746;2023-07-09T06:09:06;55.17;;;50.77;;
4744;SDS011;2386;42.138;24.746;2023-07-09T06:11:33;308.97;;;276.37;;
4744;SDS011;2386;42.138;24.746;2023-07-09T06:13:59;18.97;;;7.47;;
4744;SDS011;2386;42.138;24.746;2023-07-09T06:16:24;88.43;;;82.00;;
4744;SDS011;2386;42.138;24.746;2023-07-09T06:18:50;494.43;;;402.77;;
4744;SDS011;2386;42.138;24.746;2023-07-09T06:21:15;591.27;;;423.13;;
4744;SDS011;2386;42.138;24.746;2023-07-09T06:23:41;39.10;;;35.33;;
4744;SDS011;2386;42.138;24.746;2023-07-09T06:26:06;20.73;;;18.67;;
4744;SDS011;2386;42.138;24.746;2023-07-09T06:28:31;54.40;;;49.77;;
4744;SDS011;2386;42.138;24.746;2023-07-09T06:30:57;20.20;;;17.13;;
4744;SDS011;2386;42.138;24.746;2023-07-09T06:33:23;32.97;;;30.27;;
4744;SDS011;2386;42.138;24.746;2023-07-09T06:38:44;15.33;;;13.87;;
4744;SDS011;2386;42.138;24.746;2023-07-09T06:41:11;11.17;;;7.63;;
4744;SDS011;2386;42.138;24.746;2023-07-09T06:43:36;16.80;;;7.83;;
4744;SDS011;2386;42.138;24.746;2023-07-09T06:46:04;38.70;;;35.30;;
4744;SDS011;2386;42.138;24.746;2023-07-09T06:48:31;11.40;;;5.70;;
4744;SDS011;2386;42.138;24.746;2023-07-09T06:50:57;7.33;;;5.00;;
4744;SDS011;2386;42.138;24.746;2023-07-09T06:53:24;13.53;;;5.40;;
4744;SDS011;2386;42.138;24.746;2023-07-09T06:55:51;12.10;;;4.90;;
4744;SDS011;2386;42.138;24.746;2023-07-09T06:58:20;6.83;;;4.30;;
4744;SDS011;2386;42.138;24.746;2023-07-09T07:00:49;6.23;;;4.10;;
4744;SDS011;2386;42.138;24.746;2023-07-09T07:03:15;13.63;;;4.57;;
4744;SDS011;2386;42.138;24.746;2023-07-09T07:05:47;7.97;;;5.07;;
4744;SDS011;2386;42.138;24.746;2023-07-09T07:08:18;12.03;;;5.00;;
4744;SDS011;2386;42.138;24.746;2023-07-09T07:10:45;12.13;;;4.90;;
4744;SDS011;2386;42.138;24.746;2023-07-09T07:13:12;9.67;;;4.77;;
4744;SDS011;2386;42.138;24.746;2023-07-09T07:15:38;11.30;;;4.10;;
4744;SDS011;2386;42.138;24.746;2023-07-09T07:18:04;11.47;;;5.13;;
4744;SDS011;2386;42.138;24.746;2023-07-09T07:20:30;8.20;;;4.20;;
4744;SDS011;2386;42.138;24.746;2023-07-09T07:22:56;9.93;;;4.70;;
4744;SDS011;2386;42.138;24.746;2023-07-09T07:25:22;13.60;;;4.37;;
4744;SDS011;2386;42.138;24.746;2023-07-09T07:27:48;14.13;;;5.70;;
4744;SDS011;2386;42.138;24.746;2023-07-09T07:30:14;8.17;;;4.33;;
4744;SDS011;2386;42.138;24.746;2023-07-09T07:32:46;5.47;;;4.10;;
4744;SDS011;2386;42.138;24.746;2023-07-09T07:35:14;6.73;;;3.73;;
4744;SDS011;2386;42.138;24.746;2023-07-09T07:37:42;11.40;;;5.27;;
4744;SDS011;2386;42.138;24.746;2023-07-09T07:40:08;17.63;;;4.87;;
4744;SDS011;2386;42.138;24.746;2023-07-09T07:42:35;8.93;;;4.47;;
4744;SDS011;2386;42.138;24.746;2023-07-09T07:45:00;13.63;;;5.07;;
4744;SDS011;2386;42.138;24.746;2023-07-09T07:47:26;14.87;;;5.73;;
4744;SDS011;2386;42.138;24.746;2023-07-09T07:49:52;9.73;;;4.90;;
4744;SDS011;2386;42.138;24.746;2023-07-09T07:52:19;5.97;;;4.20;;
4744;SDS011;2386;42.138;24.746;2023-07-09T07:54:44;10.40;;;4.13;;
4744;SDS011;2386;42.138;24.746;2023-07-09T07:57:10;4.20;;;3.80;;
4744;SDS011;2386;42.138;24.746;2023-07-09T07:59:36;5.70;;;3.43;;
4744;SDS011;2386;42.138;24.746;2023-07-09T08:05:19;9.03;;;4.20;;
4744;SDS011;2386;42.138;24.746;2023-07-09T08:07:44;8.83;;;4.00;;
4744;SDS011;2386;42.138;24.746;2023-07-09T08:10:10;5.10;;;4.37;;
4744;SDS011;2386;42.138;24.746;2023-07-09T08:12:36;10.90;;;5.20;;
4744;SDS011;2386;42.138;24.746;2023-07-09T08:15:02;15.50;;;8.30;;
4744;SDS011;2386;42.138;24.746;2023-07-09T08:17:29;8.47;;;4.40;;
4744;SDS011;2386;42.138;24.746;2023-07-09T08:19:54;8.90;;;4.73;;
4744;SDS011;2386;42.138;24.746;2023-07-09T08:22:20;23.53;;;7.00;;
4744;SDS011;2386;42.138;24.746;2023-07-09T08:24:47;29.07;;;8.20;;
4744;SDS011;2386;42.138;24.746;2023-07-09T08:27:13;10.10;;;5.70;;
4744;SDS011;2386;42.138;24.746;2023-07-09T08:29:39;14.27;;;12.63;;
4744;SDS011;2386;42.138;24.746;2023-07-09T08:32:06;10.00;;;7.93;;
4744;SDS011;2386;42.138;24.746;2023-07-09T08:34:33;13.13;;;10.77;;
4744;SDS011;2386;42.138;24.746;2023-07-09T08:36:58;17.63;;;16.03;;
4744;SDS011;2386;42.138;24.746;2023-07-09T08:39:24;17.17;;;15.73;;
4744;SDS011;2386;42.138;24.746;2023-07-09T08:41:54;22.37;;;20.37;;
4744;SDS011;2386;42.138;24.746;2023-07-09T08:48:29;56.33;;;52.33;;
4744;SDS011;2386;42.138;24.746;2023-07-09T08:50:34;64.47;;;60.30;;
4744;SDS011;2386;42.138;24.746;2023-07-09T08:53:09;40.10;;;36.60;;
4744;SDS011;2386;42.138;24.746;2023-07-09T08:55:43;52.80;;;48.90;;
4744;SDS011;2386;42.138;24.746;2023-07-09T08:58:12;64.33;;;60.13;;
4744;SDS011;2386;42.138;24.746;2023-07-09T09:00:51;10.93;;;9.13;;
4744;SDS011;2386;42.138;24.746;2023-07-09T09:06:02;67.27;;;62.43;;
4744;SDS011;2386;42.138;24.746;2023-07-09T09:08:31;27.47;;;25.43;;
4744;SDS011;2386;42.138;24.746;2023-07-09T09:13:39;88.57;;;81.87;;
4744;SDS011;2386;42.138;24.746;2023-07-09T09:16:17;57.03;;;52.73;;
4744;SDS011;2386;42.138;24.746;2023-07-09T09:18:49;38.93;;;36.03;;
4744;SDS011;2386;42.138;24.746;2023-07-09T09:21:17;56.87;;;52.97;;
4744;SDS011;2386;42.138;24.746;2023-07-09T09:23:52;49.53;;;45.53;;
4744;SDS011;2386;42.138;24.746;2023-07-09T09:26:23;28.13;;;25.43;;
4744;SDS011;2386;42.138;24.746;2023-07-09T09:28:53;124.23;;;115.53;;
4744;SDS011;2386;42.138;24.746;2023-07-09T09:31:19;164.57;;;153.33;;
4744;SDS011;2386;42.138;24.746;2023-07-09T09:33:46;153.20;;;143.20;;
4744;SDS011;2386;42.138;24.746;2023-07-09T09:36:20;242.33;;;226.13;;
4744;SDS011;2386;42.138;24.746;2023-07-09T09:38:47;250.17;;;231.10;;
4744;SDS011;2386;42.138;24.746;2023-07-09T09:41:17;404.60;;;374.70;;
4744;SDS011;2386;42.138;24.746;2023-07-09T09:43:44;600.20;;;542.63;;
4744;SDS011;2386;42.138;24.746;2023-07-09T09:49:38;604.20;;;550.90;;
4744;SDS011;2386;42.138;24.746;2023-07-09T09:52:14;605.13;;;545.07;;
4744;SDS011;2386;42.138;24.746;2023-07-09T09:55:10;74.57;;;69.43;;
4744;SDS011;2386;42.138;24.746;2023-07-09T09:57:49;95.33;;;88.87;;
4744;SDS011;2386;42.138;24.746;2023-07-09T10:00:16;347.97;;;322.63;;
4744;SDS011;2386;42.138;24.746;2023-07-09T10:02:42;465.17;;;427.37;;
4744;SDS011;2386;42.138;24.746;2023-07-09T10:05:14;76.23;;;71.47;;
4744;SDS011;2386;42.138;24.746;2023-07-09T10:07:45;571.70;;;524.53;;
4744;SDS011;2386;42.138;24.746;2023-07-09T10:10:24;615.77;;;564.03;;
4744;SDS011;2386;42.138;24.746;2023-07-09T10:13:17;301.87;;;280.73;;
4744;SDS011;2386;42.138;24.746;2023-07-09T10:19:32;267.40;;;249.07;;
4744;SDS011;2386;42.138;24.746;2023-07-09T10:25:11;437.60;;;401.97;;
4744;SDS011;2386;42.138;24.746;2023-07-09T10:33:13;597.90;;;546.77;;
4744;SDS011;2386;42.138;24.746;2023-07-09T10:36:01;561.07;;;514.57;;
4744;SDS011;2386;42.138;24.746;2023-07-09T10:41:15;604.90;;;550.43;;
4744;SDS011;2386;42.138;24.746;2023-07-09T10:43:47;279.73;;;258.73;;
4744;SDS011;2386;42.138;24.746;2023-07-09T10:46:21;171.50;;;159.77;;
4744;SDS011;2386;42.138;24.746;2023-07-09T10:48:50;513.63;;;474.50;;
4744;SDS011;2386;42.138;24.746;2023-07-09T10:54:02;155.30;;;143.73;;
4744;SDS011;2386;42.138;24.746;2023-07-09T10:56:35;624.40;;;572.20;;
4744;SDS011;2386;42.138;24.746;2023-07-09T11:01:48;579.20;;;532.30;;
4744;SDS011;2386;42.138;24.746;2023-07-09T11:04:24;222.77;;;208.10;;
4744;SDS011;2386;42.138;24.746;2023-07-09T11:10:23;654.93;;;599.07;;
4744;SDS011;2386;42.138;24.746;2023-07-09T11:15:39;643.03;;;581.90;;
4744;SDS011;2386;42.138;24.746;2023-07-09T11:18:10;645.30;;;583.47;;
4744;SDS011;2386;42.138;24.746;2023-07-09T11:20:42;640.37;;;580.90;;
4744;SDS011;2386;42.138;24.746;2023-07-09T11:23:20;656.30;;;600.73;;
4744;SDS011;2386;42.138;24.746;2023-07-09T11:25:48;663.93;;;595.07;;
4744;SDS011;2386;42.138;24.746;2023-07-09T11:28:32;646.97;;;582.37;;
4744;SDS011;2386;42.138;24.746;2023-07-09T11:31:04;581.13;;;482.60;;
4744;SDS011;2386;42.138;24.746;2023-07-09T11:33:32;701.70;;;632.30;;
4744;SDS011;2386;42.138;24.746;2023-07-09T11:36:14;709.40;;;641.53;;
4744;SDS011;2386;42.138;24.746;2023-07-09T11:38:48;711.03;;;641.23;;
4744;SDS011;2386;42.138;24.746;2023-07-09T11:44:23;707.60;;;637.43;;
4744;SDS011;2386;42.138;24.746;2023-07-09T11:49:19;688.77;;;619.87;;
4744;SDS011;2386;42.138;24.746;2023-07-09T11:51:50;712.00;;;641.87;;
4744;SDS011;2386;42.138;24.746;2023-07-09T11:54:20;683.20;;;614.67;;
4744;SDS011;2386;42.138;24.746;2023-07-09T11:56:56;693.87;;;625.40;;
4744;SDS011;2386;42.138;24.746;2023-07-09T11:59:22;548.83;;;465.70;;
4744;SDS011;2386;42.138;24.746;2023-07-09T12:01:48;526.13;;;407.87;;
4744;SDS011;2386;42.138;24.746;2023-07-09T12:04:18;508.50;;;402.83;;
4744;SDS011;2386;42.138;24.746;2023-07-09T12:06:45;516.23;;;434.00;;
4744;SDS011;2386;42.138;24.746;2023-07-09T12:09:19;520.70;;;463.50;;
4744;SDS011;2386;42.138;24.746;2023-07-09T12:11:48;498.93;;;430.97;;
4744;SDS011;2386;42.138;24.746;2023-07-09T12:14:19;504.77;;;449.63;;
4744;SDS011;2386;42.138;24.746;2023-07-09T12:16:48;541.43;;;485.37;;
4744;SDS011;2386;42.138;24.746;2023-07-09T12:19:19;507.33;;;452.90;;
4744;SDS011;2386;42.138;24.746;2023-07-09T12:21:53;475.53;;;410.97;;
4744;SDS011;2386;42.138;24.746;2023-07-09T12:24:22;535.53;;;480.53;;
4744;SDS011;2386;42.138;24.746;2023-07-09T12:26:59;493.10;;;440.30;;
4744;SDS011;2386;42.138;24.746;2023-07-09T12:29:26;456.07;;;388.07;;
4744;SDS011;2386;42.138;24.746;2023-07-09T12:31:55;448.33;;;383.67;;
4744;SDS011;2386;42.138;24.746;2023-07-09T12:34:24;443.43;;;379.53;;
4744;SDS011;2386;42.138;24.746;2023-07-09T12:36:51;440.40;;;376.90;;
4744;SDS011;2386;42.138;24.746;2023-07-09T12:39:21;435.80;;;364.77;;
4744;SDS011;2386;42.138;24.746;2023-07-09T12:41:54;429.07;;;360.80;;
4744;SDS011;2386;42.138;24.746;2023-07-09T12:44:21;437.83;;;375.65;;
4744;SDS011;2386;42.138;24.746;2023-07-09T12:46:49;439.43;;;380.33;;
4744;SDS011;2386;42.138;24.746;2023-07-09T12:51:55;441.20;;;381.00;;
4744;SDS011;2386;42.138;24.746;2023-07-09T12:54:21;441.90;;;385.73;;
4744;SDS011;2386;42.138;24.746;2023-07-09T12:56:50;439.77;;;380.45;;
4744;SDS011;2386;42.138;24.746;2023-07-09T12:59:22;430.10;;;365.13;;
4744;SDS011;2386;42.138;24.746;2023-07-09T13:04:29;431.07;;;352.77;;
4744;SDS011;2386;42.138;24.746;2023-07-09T13:06:57;438.07;;;377.47;;
4744;SDS011;2386;42.138;24.746;2023-07-09T13:09:25;437.87;;;374.57;;
4744;SDS011;2386;42.138;24.746;2023-07-09T13:11:51;437.27;;;376.53;;
4744;SDS011;2386;42.138;24.746;2023-07-09T13:14:21;433.23;;;362.60;;
4744;SDS011;2386;42.138;24.746;2023-07-09T13:16:49;431.10;;;360.13;;
4744;SDS011;2386;42.138;24.746;2023-07-09T13:19:15;429.98;;;358.45;;
4744;SDS011;2386;42.138;24.746;2023-07-09T13:21:42;438.57;;;377.13;;
4744;SDS011;2386;42.138;24.746;2023-07-09T13:24:17;435.83;;;360.67;;
4744;SDS011;2386;42.138;24.746;2023-07-09T13:30:16;543.78;;;490.55;;
4744;SDS011;2386;42.138;24.746;2023-07-09T13:32:41;468.45;;;417.60;;
4744;SDS011;2386;42.138;24.746;2023-07-09T13:35:14;511.92;;;459.15;;
4744;SDS011;2386;42.138;24.746;2023-07-09T13:37:42;448.40;;;394.05;;
4744;SDS011;2386;42.138;24.746;2023-07-09T13:40:13;487.55;;;436.42;;
4744;SDS011;2386;42.138;24.746;2023-07-09T13:42:40;440.13;;;378.80;;
4744;SDS011;2386;42.138;24.746;2023-07-09T13:45:16;436.15;;;386.77;;
4744;SDS011;2386;42.138;24.746;2023-07-09T13:47:44;425.13;;;364.85;;
4744;SDS011;2386;42.138;24.746;2023-07-09T13:50:09;429.45;;;378.20;;
4744;SDS011;2386;42.138;24.746;2023-07-09T13:52:35;419.40;;;362.83;;
4744;SDS011;2386;42.138;24.746;2023-07-09T13:55:00;413.65;;;346.23;;
4744;SDS011;2386;42.138;24.746;2023-07-09T13:57:26;415.70;;;349.95;;
4744;SDS011;2386;42.138;24.746;2023-07-09T13:59:51;442.77;;;392.05;;
4744;SDS011;2386;42.138;24.746;2023-07-09T14:04:45;511.40;;;459.15;;
4744;SDS011;2386;42.138;24.746;2023-07-09T14:07:23;487.38;;;436.48;;
4744;SDS011;2386;42.138;24.746;2023-07-09T14:09:51;462.17;;;412.98;;
4744;SDS011;2386;42.138;24.746;2023-07-09T14:12:16;428.83;;;359.05;;
4744;SDS011;2386;42.138;24.746;2023-07-09T14:14:42;407.23;;;334.13;;
4744;SDS011;2386;42.138;24.746;2023-07-09T14:17:11;413.88;;;339.35;;
4744;SDS011;2386;42.138;24.746;2023-07-09T14:19:37;430.35;;;367.67;;
4744;SDS011;2386;42.138;24.746;2023-07-09T14:22:04;417.17;;;341.52;;
4744;SDS011;2386;42.138;24.746;2023-07-09T14:24:46;392.55;;;316.40;;
4744;SDS011;2386;42.138;24.746;2023-07-09T14:30:02;407.20;;;325.98;;
4744;SDS011;2386;42.138;24.746;2023-07-09T14:34:59;408.83;;;338.60;;
4744;SDS011;2386;42.138;24.746;2023-07-09T14:37:25;424.05;;;360.63;;
4744;SDS011;2386;42.138;24.746;2023-07-09T14:39:51;485.52;;;435.60;;
4744;SDS011;2386;42.138;24.746;2023-07-09T14:42:19;448.00;;;398.23;;
4744;SDS011;2386;42.138;24.746;2023-07-09T14:44:47;440.88;;;386.23;;
4744;SDS011;2386;42.138;24.746;2023-07-09T14:47:16;437.45;;;384.95;;
4744;SDS011;2386;42.138;24.746;2023-07-09T14:49:45;423.13;;;362.20;;
4744;SDS011;2386;42.138;24.746;2023-07-09T14:52:12;528.03;;;475.00;;
4744;SDS011;2386;42.138;24.746;2023-07-09T14:54:39;408.00;;;376.15;;
4744;SDS011;2386;42.138;24.746;2023-07-09T14:57:08;588.47;;;538.60;;
4744;SDS011;2386;42.138;24.746;2023-07-09T14:59:44;572.45;;;524.25;;
4744;SDS011;2386;42.138;24.746;2023-07-09T15:04:48;587.20;;;540.20;;
4744;SDS011;2386;42.138;24.746;2023-07-09T15:07:14;573.47;;;526.65;;
4744;SDS011;2386;42.138;24.746;2023-07-09T15:09:40;490.08;;;451.58;;
4744;SDS011;2386;42.138;24.746;2023-07-09T15:12:08;444.77;;;410.17;;
4744;SDS011;2386;42.138;24.746;2023-07-09T15:14:40;377.55;;;349.40;;
4744;SDS011;2386;42.138;24.746;2023-07-09T15:17:07;409.10;;;378.50;;
4744;SDS011;2386;42.138;24.746;2023-07-09T15:19:35;495.00;;;457.05;;
4744;SDS011;2386;42.138;24.746;2023-07-09T15:22:00;473.48;;;437.27;;
4744;SDS011;2386;42.138;24.746;2023-07-09T15:24:30;454.80;;;420.38;;
4744;SDS011;2386;42.138;24.746;2023-07-09T15:26:59;521.07;;;478.20;;
4744;SDS011;2386;42.138;24.746;2023-07-09T15:29:26;584.80;;;537.57;;
4744;SDS011;2386;42.138;24.746;2023-07-09T15:31:52;674.00;;;621.17;;
4744;SDS011;2386;42.138;24.746;2023-07-09T15:34:18;733.33;;;675.77;;
4744;SDS011;2386;42.138;24.746;2023-07-09T15:36:45;749.97;;;690.97;;
4744;SDS011;2386;42.138;24.746;2023-07-09T15:39:13;734.67;;;676.70;;
4744;SDS011;2386;42.138;24.746;2023-07-09T15:41:40;681.73;;;627.63;;
4744;SDS011;2386;42.138;24.746;2023-07-09T15:44:13;737.27;;;679.57;;
4744;SDS011;2386;42.138;24.746;2023-07-09T15:46:42;632.20;;;582.57;;
4744;SDS011;2386;42.138;24.746;2023-07-09T15:49:15;620.40;;;571.40;;
4744;SDS011;2386;42.138;24.746;2023-07-09T15:51:40;666.60;;;613.90;;
4744;SDS011;2386;42.138;24.746;2023-07-09T15:54:12;702.43;;;648.60;;
4744;SDS011;2386;42.138;24.746;2023-07-09T15:56:40;638.60;;;586.57;;